createdAt,value
2023-05-18T00:02:21.734Z,8.40
2023-05-18T00:04:48.720Z,8.30
2023-05-18T00:07:15.688Z,8.30
2023-05-18T00:09:42.616Z,8.20
2023-05-18T00:12:12.300Z,8.30
2023-05-18T00:14:39.184Z,8.20
2023-05-18T00:17:06.078Z,8.20
2023-05-18T00:19:33.460Z,8.30
2023-05-18T00:22:02.402Z,8.20
2023-05-18T00:24:29.328Z,8.10
2023-05-18T00:26:56.197Z,8.10
2023-05-18T00:29:23.152Z,8.10
2023-05-18T00:31:50.126Z,8.00
2023-05-18T00:34:17.085Z,8.10
2023-05-18T00:36:44.044Z,8.10
2023-05-18T00:39:11.452Z,8.10
2023-05-18T00:41:38.902Z,8.10
2023-05-18T00:44:06.142Z,7.90
2023-05-18T00:46:33.511Z,7.90
2023-05-18T00:49:02.240Z,7.90
2023-05-18T00:51:29.835Z,7.70
2023-05-18T00:53:57.626Z,7.70
2023-05-18T00:56:25.131Z,7.70
2023-05-18T00:58:57.383Z,7.60
2023-05-18T01:01:31.893Z,7.60
2023-05-18T01:04:02.530Z,7.60
2023-05-18T01:06:36.372Z,7.60
2023-05-18T01:09:07.183Z,7.60
2023-05-18T01:11:56.078Z,7.70
2023-05-18T01:14:38.336Z,7.40
2023-05-18T01:17:29.335Z,7.40
2023-05-18T01:20:07.676Z,7.30
2023-05-18T01:23:01.924Z,7.20
2023-05-18T01:25:34.322Z,7.10
2023-05-18T01:28:06.675Z,7.20
2023-05-18T01:30:40.514Z,7.20
2023-05-18T01:33:12.759Z,7.00
2023-05-18T01:35:48.844Z,7.00
2023-05-18T01:38:21.322Z,6.90
2023-05-18T01:41:06.973Z,7.00
2023-05-18T01:43:36.346Z,7.00
2023-05-18T01:46:16.482Z,7.10
2023-05-18T01:48:49.090Z,7.10
2023-05-18T01:51:21.529Z,6.90
2023-05-18T01:53:57.278Z,6.80
2023-05-18T01:56:25.312Z,6.80
2023-05-18T01:58:53.348Z,6.80
2023-05-18T02:01:23.035Z,6.80
2023-05-18T02:03:51.418Z,6.70
2023-05-18T02:06:18.481Z,6.70
2023-05-18T02:08:45.572Z,6.70
2023-05-18T02:11:12.440Z,6.60
2023-05-18T02:13:39.279Z,6.70
2023-05-18T02:18:34.325Z,6.60
2023-05-18T02:21:01.803Z,6.60
2023-05-18T02:23:28.697Z,6.50
2023-05-18T02:25:55.646Z,6.40
2023-05-18T02:28:23.307Z,6.60
2023-05-18T02:30:50.217Z,6.50
2023-05-18T02:33:17.980Z,6.60
2023-05-18T02:35:44.831Z,6.50
2023-05-18T02:38:12.029Z,6.40
2023-05-18T02:40:38.881Z,6.40
2023-05-18T02:43:06.034Z,6.40
2023-05-18T02:45:33.123Z,6.40
2023-05-18T02:48:00.238Z,6.40
2023-05-18T02:50:27.258Z,6.30
2023-05-18T02:52:54.108Z,6.40
2023-05-18T02:55:21.049Z,6.20
2023-05-18T02:57:48.358Z,6.20
2023-05-18T03:00:16.955Z,6.20
2023-05-18T03:02:44.565Z,6.10
2023-05-18T03:05:11.610Z,6.10
2023-05-18T03:07:38.570Z,6.10
2023-05-18T03:10:07.861Z,6.10
2023-05-18T03:12:34.744Z,6.20
2023-05-18T03:15:01.600Z,6.00
2023-05-18T03:17:28.927Z,6.00
2023-05-18T03:19:55.825Z,6.00
2023-05-18T03:22:22.752Z,5.90
2023-05-18T03:24:51.504Z,6.00
2023-05-18T03:27:20.407Z,6.10
2023-05-18T03:29:47.271Z,6.00
2023-05-18T03:32:14.140Z,6.00
2023-05-18T03:34:41.004Z,6.00
2023-05-18T03:37:07.892Z,6.10
2023-05-18T03:39:34.784Z,6.20
2023-05-18T03:42:02.195Z,6.20
2023-05-18T03:44:29.164Z,6.20
2023-05-18T03:46:56.132Z,6.20
2023-05-18T03:49:23.052Z,6.10
2023-05-18T03:51:50.140Z,6.20
2023-05-18T03:54:17.031Z,6.10
2023-05-18T03:56:44.107Z,6.10
2023-05-18T03:59:11.055Z,6.20
2023-05-18T04:01:38.373Z,6.30
2023-05-18T04:04:05.440Z,6.40
2023-05-18T04:06:32.363Z,6.60
2023-05-18T04:09:05.007Z,6.60
2023-05-18T04:11:31.967Z,6.80
2023-05-18T04:14:01.146Z,6.80
2023-05-18T04:16:28.660Z,6.90
2023-05-18T04:18:55.618Z,7.00
2023-05-18T04:21:23.310Z,7.00
2023-05-18T04:23:50.349Z,6.90
2023-05-18T04:26:20.254Z,7.00
2023-05-18T04:28:50.196Z,7.20
2023-05-18T04:31:18.364Z,7.40
2023-05-18T04:33:47.457Z,7.40
2023-05-18T04:36:15.175Z,7.50
2023-05-18T04:38:42.079Z,7.60
2023-05-18T04:41:09.685Z,7.60
2023-05-18T04:43:36.843Z,7.60
2023-05-18T04:46:04.141Z,7.60
2023-05-18T04:48:32.337Z,7.60
2023-05-18T04:50:59.221Z,7.70
2023-05-18T04:53:27.644Z,7.70
2023-05-18T04:55:54.715Z,7.80
2023-05-18T04:58:21.620Z,7.70
2023-05-18T05:00:48.499Z,7.90
2023-05-18T05:03:15.706Z,8.00
2023-05-18T05:05:42.657Z,8.20
2023-05-18T05:08:09.530Z,8.30
2023-05-18T05:10:36.607Z,8.40
2023-05-18T05:13:04.242Z,8.70
2023-05-18T05:15:31.396Z,9.30
2023-05-18T05:17:59.075Z,9.90
2023-05-18T05:20:26.248Z,10.70
2023-05-18T05:22:53.227Z,11.30
2023-05-18T05:25:20.656Z,11.70
2023-05-18T05:27:47.549Z,12.00
2023-05-18T05:30:14.478Z,11.90
2023-05-18T05:32:41.406Z,12.30
2023-05-18T05:35:08.641Z,12.50
2023-05-18T05:37:35.761Z,12.90
2023-05-18T05:40:03.476Z,13.00
2023-05-18T05:42:30.477Z,13.30
2023-05-18T05:44:57.361Z,13.50
2023-05-18T05:47:24.276Z,13.70
2023-05-18T05:49:51.405Z,13.70
2023-05-18T05:52:18.268Z,13.60
2023-05-18T05:54:45.164Z,13.60
2023-05-18T05:57:12.129Z,13.70
2023-05-18T05:59:39.031Z,14.50
2023-05-18T06:02:05.964Z,14.80
2023-05-18T06:04:32.997Z,15.10
2023-05-18T06:06:59.896Z,15.20
2023-05-18T06:09:27.033Z,15.10
2023-05-18T06:11:53.891Z,15.20
2023-05-18T06:14:21.453Z,15.40
2023-05-18T06:16:48.626Z,15.40
2023-05-18T06:19:15.780Z,15.60
2023-05-18T06:21:42.673Z,15.90
2023-05-18T06:24:09.777Z,16.20
2023-05-18T06:26:36.689Z,16.00
2023-05-18T06:29:03.679Z,15.90
2023-05-18T06:31:30.902Z,16.50
2023-05-18T06:33:57.843Z,17.40
2023-05-18T06:36:24.745Z,17.20
2023-05-18T06:38:51.864Z,17.00
2023-05-18T06:41:18.779Z,16.70
2023-05-18T06:43:45.742Z,16.30
2023-05-18T06:46:26.659Z,16.40
2023-05-18T06:48:54.759Z,16.90
2023-05-18T06:51:21.642Z,16.50
2023-05-18T06:53:48.688Z,16.60
2023-05-18T06:56:16.837Z,17.10
2023-05-18T06:58:43.868Z,16.80
2023-05-18T07:01:11.630Z,16.50
2023-05-18T07:03:38.864Z,16.40
2023-05-18T07:06:06.318Z,16.10
2023-05-18T07:08:33.839Z,16.70
2023-05-18T07:11:02.655Z,17.30
2023-05-18T07:13:30.167Z,17.90
2023-05-18T07:18:37.220Z,18.10
2023-05-18T07:21:04.417Z,18.30
2023-05-18T07:23:31.346Z,18.10
2023-05-18T07:25:58.271Z,18.10
2023-05-18T07:28:25.428Z,18.30
2023-05-18T07:30:52.485Z,18.40
2023-05-18T07:33:19.538Z,18.50
2023-05-18T07:35:46.428Z,18.50
2023-05-18T07:38:13.333Z,18.50
2023-05-18T07:40:40.363Z,18.40
2023-05-18T07:43:07.239Z,18.30
2023-05-18T07:45:34.380Z,17.70
2023-05-18T07:48:02.068Z,17.20
2023-05-18T07:50:30.019Z,17.50
2023-05-18T07:52:57.049Z,17.70
2023-05-18T07:55:23.989Z,18.20
2023-05-18T07:57:51.057Z,18.50
2023-05-18T08:00:19.240Z,18.30
2023-05-18T08:02:46.562Z,18.50
2023-05-18T08:05:14.061Z,18.70
2023-05-18T08:07:41.094Z,19.20
2023-05-18T08:10:08.313Z,19.00
2023-05-18T08:12:35.250Z,19.50
2023-05-18T08:15:02.303Z,18.90
2023-05-18T08:17:29.210Z,18.40
2023-05-18T08:19:57.106Z,17.70
2023-05-18T08:22:24.022Z,18.40
2023-05-18T08:24:51.018Z,18.90
2023-05-18T08:27:18.949Z,18.10
2023-05-18T08:29:45.897Z,17.90
2023-05-18T08:32:12.974Z,18.20
2023-05-18T08:34:39.921Z,18.20
2023-05-18T08:37:06.894Z,18.10
2023-05-18T08:39:33.773Z,18.10
2023-05-18T08:42:50.377Z,18.20
2023-05-18T08:45:33.410Z,17.60
2023-05-18T08:48:03.033Z,17.10
2023-05-18T08:50:33.119Z,17.20
2023-05-18T08:53:06.156Z,17.90
2023-05-18T08:55:37.605Z,18.10
2023-05-18T08:58:07.655Z,17.70
2023-05-18T09:00:35.545Z,18.00
2023-05-18T09:03:05.148Z,18.10
2023-05-18T09:05:32.562Z,18.00
2023-05-18T09:08:00.661Z,18.10
2023-05-18T09:10:28.297Z,18.40
2023-05-18T09:12:56.951Z,18.30
2023-05-18T09:15:25.576Z,17.80
2023-05-18T09:17:52.747Z,17.80
2023-05-18T09:20:20.822Z,17.60
2023-05-18T09:22:51.447Z,17.60
2023-05-18T09:25:19.162Z,17.60
2023-05-18T09:27:47.973Z,17.70
2023-05-18T09:30:14.950Z,17.50
2023-05-18T09:32:42.576Z,17.30
2023-05-18T09:35:09.850Z,17.10
2023-05-18T09:37:37.268Z,17.10
2023-05-18T09:40:06.846Z,17.10
2023-05-18T09:42:40.612Z,17.10
2023-05-18T09:45:17.893Z,16.70
2023-05-18T09:47:45.286Z,15.90
2023-05-18T09:50:12.578Z,15.40
2023-05-18T09:52:44.092Z,15.20
2023-05-18T09:55:18.160Z,15.30
2023-05-18T09:57:47.489Z,15.20
2023-05-18T10:00:15.854Z,15.60
2023-05-18T10:02:48.228Z,15.30
2023-05-18T10:05:24.175Z,14.90
2023-05-18T10:07:51.895Z,14.80
2023-05-18T10:10:20.563Z,14.80
2023-05-18T10:12:47.702Z,15.00
2023-05-18T10:15:20.911Z,15.10
2023-05-18T10:17:48.933Z,15.00
2023-05-18T10:20:19.155Z,14.80
2023-05-18T10:22:50.388Z,14.70
2023-05-18T10:25:20.724Z,14.50
2023-05-18T10:27:50.147Z,14.50
2023-05-18T10:30:20.580Z,14.50
2023-05-18T10:32:48.546Z,14.40
2023-05-18T10:35:17.119Z,14.60
2023-05-18T10:37:50.511Z,14.60
2023-05-18T10:40:19.753Z,14.60
2023-05-18T10:42:47.136Z,14.50
2023-05-18T10:45:15.316Z,14.30
2023-05-18T10:47:43.826Z,14.30
2023-05-18T10:50:11.304Z,14.30
2023-05-18T10:52:38.626Z,14.40
2023-05-18T10:55:08.055Z,14.50
2023-05-18T10:57:43.449Z,14.50
2023-05-18T11:00:11.138Z,14.50
2023-05-18T11:02:42.800Z,14.60
2023-05-18T11:05:11.265Z,14.60
2023-05-18T11:07:39.342Z,14.60
2023-05-18T11:10:11.468Z,14.70
2023-05-18T11:12:40.524Z,14.60
2023-05-18T11:15:09.308Z,14.70
2023-05-18T11:17:36.833Z,14.90
2023-05-18T11:20:09.860Z,14.90
2023-05-18T11:22:48.434Z,15.00
2023-05-18T11:25:34.182Z,14.90
2023-05-18T11:28:13.621Z,14.80
2023-05-18T11:30:44.979Z,14.50
2023-05-18T11:33:43.247Z,14.50
2023-05-18T11:36:12.268Z,14.70
2023-05-18T11:38:54.957Z,14.80
2023-05-18T11:41:30.509Z,14.70
2023-05-18T11:44:12.740Z,14.60
2023-05-18T11:46:58.503Z,14.80
2023-05-18T11:49:31.285Z,15.10
2023-05-18T11:52:13.708Z,15.00
2023-05-18T11:54:45.036Z,14.90
2023-05-18T11:57:13.665Z,14.90
2023-05-18T11:59:42.954Z,14.90
2023-05-18T12:02:11.926Z,15.00
2023-05-18T12:05:09.023Z,14.90
2023-05-18T12:07:37.322Z,15.00
2023-05-18T12:10:09.352Z,15.20
2023-05-18T12:12:36.469Z,15.10
2023-05-18T12:15:06.097Z,15.20
2023-05-18T12:17:47.373Z,15.10
2023-05-18T12:20:17.952Z,14.90
2023-05-18T12:22:54.001Z,14.90
2023-05-18T12:25:23.480Z,14.90
2023-05-18T12:27:51.895Z,15.00
2023-05-18T12:30:35.037Z,15.10
2023-05-18T12:33:03.345Z,15.10
2023-05-18T12:35:31.682Z,15.00
2023-05-18T12:38:02.847Z,15.00
2023-05-18T12:40:44.477Z,15.20
2023-05-18T12:43:12.089Z,15.30
2023-05-18T12:45:39.073Z,15.30
2023-05-18T12:48:10.727Z,15.20
2023-05-18T12:50:49.480Z,15.20
2023-05-18T12:53:17.634Z,15.20
2023-05-18T12:55:44.537Z,15.30
2023-05-18T12:58:21.079Z,15.40
2023-05-18T13:00:48.893Z,15.40
2023-05-18T13:03:18.157Z,15.40
2023-05-18T13:05:47.127Z,15.50
2023-05-18T13:08:16.431Z,15.60
2023-05-18T13:10:44.333Z,15.70
2023-05-18T13:13:15.069Z,15.60
2023-05-18T13:15:43.604Z,15.70
2023-05-18T13:18:12.174Z,15.70
2023-05-18T13:20:41.522Z,15.70
2023-05-18T13:23:11.643Z,15.50
2023-05-18T13:25:42.292Z,15.30
2023-05-18T13:28:13.386Z,15.40
2023-05-18T13:30:42.472Z,15.50
2023-05-18T13:33:10.788Z,15.70
2023-05-18T13:35:42.337Z,15.80
2023-05-18T13:38:10.726Z,15.80
2023-05-18T13:40:38.178Z,15.70
2023-05-18T13:43:09.122Z,15.80
2023-05-18T13:45:37.413Z,15.70
2023-05-18T13:48:10.097Z,15.70
2023-05-18T13:50:38.002Z,15.80
2023-05-18T13:53:04.969Z,15.80
2023-05-18T13:55:33.491Z,15.80
2023-05-18T13:58:01.039Z,15.80
2023-05-18T14:00:28.282Z,15.80
2023-05-18T14:02:56.892Z,15.90
2023-05-18T14:05:24.255Z,16.10
2023-05-18T14:07:52.718Z,16.10
2023-05-18T14:10:19.680Z,16.20
2023-05-18T14:12:47.247Z,16.10
2023-05-18T14:15:15.084Z,16.10
2023-05-18T14:17:43.282Z,16.20
2023-05-18T14:20:11.460Z,16.40
2023-05-18T14:22:38.686Z,16.20
2023-05-18T14:25:06.132Z,16.00
2023-05-18T14:27:33.064Z,16.10
2023-05-18T14:30:00.057Z,15.90
2023-05-18T14:32:27.001Z,15.80
2023-05-18T14:34:56.036Z,15.90
2023-05-18T14:37:22.987Z,15.80
2023-05-18T14:39:50.008Z,15.80
2023-05-18T14:42:17.008Z,15.70
2023-05-18T14:44:43.879Z,15.70
2023-05-18T14:47:10.957Z,15.60
2023-05-18T14:49:38.217Z,15.70
2023-05-18T14:52:05.696Z,15.90
2023-05-18T14:54:32.665Z,16.00
2023-05-18T14:56:59.959Z,16.00
2023-05-18T14:59:26.870Z,16.00
2023-05-18T15:01:53.916Z,16.10
2023-05-18T15:04:22.166Z,16.10
2023-05-18T15:06:49.944Z,16.20
2023-05-18T15:09:17.431Z,16.10
2023-05-18T15:11:44.589Z,16.10
2023-05-18T15:14:11.543Z,16.10
2023-05-18T15:16:39.105Z,16.30
2023-05-18T15:19:06.197Z,16.20
2023-05-18T15:21:33.284Z,16.20
2023-05-18T15:24:00.198Z,16.20
2023-05-18T15:26:27.696Z,16.30
2023-05-18T15:28:54.837Z,16.30
2023-05-18T15:31:21.891Z,16.30
2023-05-18T15:33:48.934Z,16.30
2023-05-18T15:36:16.221Z,16.40
2023-05-18T15:38:43.157Z,16.40
2023-05-18T15:41:10.105Z,16.40
2023-05-18T15:43:37.705Z,16.30
2023-05-18T15:46:05.174Z,16.30
2023-05-18T15:48:32.181Z,16.20
2023-05-18T15:50:59.070Z,16.20
2023-05-18T15:53:26.078Z,16.10
2023-05-18T15:55:57.379Z,16.30
2023-05-18T15:58:25.774Z,16.30
2023-05-18T16:00:52.770Z,16.40
2023-05-18T16:03:19.779Z,16.50
2023-05-18T16:05:46.817Z,16.30
2023-05-18T16:08:13.697Z,16.40
2023-05-18T16:10:40.564Z,16.40
2023-05-18T16:13:07.651Z,16.40
2023-05-18T16:15:35.720Z,16.40
2023-05-18T16:18:02.905Z,16.30
2023-05-18T16:20:30.443Z,16.30
2023-05-18T16:22:57.855Z,16.40
2023-05-18T16:25:25.021Z,16.30
2023-05-18T16:27:52.033Z,16.20
2023-05-18T16:30:19.095Z,16.10
2023-05-18T16:32:46.078Z,16.10
2023-05-18T16:35:13.106Z,16.00
2023-05-18T16:37:40.092Z,16.00
2023-05-18T16:40:08.382Z,15.90
2023-05-18T16:42:35.581Z,15.80
2023-05-18T16:45:02.705Z,15.70
2023-05-18T16:47:32.832Z,15.70
2023-05-18T16:50:00.501Z,15.70
2023-05-18T16:52:27.611Z,15.70
2023-05-18T16:54:54.579Z,15.70
2023-05-18T16:57:22.316Z,15.70
2023-05-18T16:59:49.368Z,15.70
2023-05-18T17:02:17.790Z,15.60
2023-05-18T17:04:50.093Z,15.60
2023-05-18T17:07:17.308Z,15.50
2023-05-18T17:09:44.522Z,15.50
2023-05-18T17:12:12.344Z,15.60
2023-05-18T17:14:39.365Z,15.60
2023-05-18T17:17:07.246Z,15.60
2023-05-18T17:19:39.032Z,15.60
2023-05-18T17:22:06.358Z,15.60
2023-05-18T17:24:33.219Z,15.50
2023-05-18T17:27:00.134Z,15.50
2023-05-18T17:29:27.337Z,15.40
2023-05-18T17:31:54.346Z,15.40
2023-05-18T17:34:21.900Z,15.40
2023-05-18T17:36:49.486Z,15.40
2023-05-18T17:39:16.783Z,15.40
2023-05-18T17:41:44.098Z,15.40
2023-05-18T17:44:14.495Z,15.30
2023-05-18T17:46:42.265Z,15.30
2023-05-18T17:49:09.455Z,15.20
2023-05-18T17:51:36.611Z,15.10
2023-05-18T17:54:03.908Z,15.20
2023-05-18T17:56:31.877Z,15.10
2023-05-18T17:58:59.432Z,15.10
2023-05-18T18:01:27.604Z,15.10
2023-05-18T18:03:55.472Z,15.00
2023-05-18T18:06:23.015Z,14.90
2023-05-18T18:08:50.633Z,14.90
2023-05-18T18:11:17.881Z,14.90
2023-05-18T18:13:44.808Z,15.00
2023-05-18T18:16:11.882Z,14.90
2023-05-18T18:18:39.351Z,14.80
2023-05-18T18:21:06.867Z,14.70
2023-05-18T18:23:37.542Z,14.70
2023-05-18T18:26:05.694Z,14.80
2023-05-18T18:28:33.207Z,14.70
2023-05-18T18:31:01.017Z,14.60
2023-05-18T18:33:28.048Z,14.60
2023-05-18T18:35:56.375Z,14.50
2023-05-18T18:38:23.736Z,14.40
2023-05-18T18:40:50.832Z,14.50
2023-05-18T18:43:17.723Z,14.40
2023-05-18T18:45:44.648Z,14.30
2023-05-18T18:48:11.609Z,14.20
2023-05-18T18:50:38.533Z,14.20
2023-05-18T18:53:05.516Z,14.20
2023-05-18T18:55:32.662Z,14.10
2023-05-18T18:58:01.450Z,14.00
2023-05-18T19:00:28.417Z,14.00
2023-05-18T19:02:55.473Z,13.90
2023-05-18T19:05:24.474Z,13.80
2023-05-18T19:07:55.285Z,13.90
2023-05-18T19:10:25.772Z,13.70
2023-05-18T19:12:53.087Z,13.70
2023-05-18T19:15:21.596Z,13.70
2023-05-18T19:17:53.597Z,13.70
2023-05-18T19:20:21.067Z,13.60
2023-05-18T19:22:47.997Z,13.60
2023-05-18T19:25:15.061Z,13.60
2023-05-18T19:27:42.187Z,13.50
2023-05-18T19:30:11.090Z,13.20
2023-05-18T19:32:37.993Z,13.30
2023-05-18T19:35:05.064Z,13.10
2023-05-18T19:37:31.964Z,13.20
2023-05-18T19:39:58.886Z,13.20
2023-05-18T19:42:25.735Z,13.00
2023-05-18T19:44:52.599Z,13.00
2023-05-18T19:47:19.517Z,13.00
2023-05-18T19:49:46.504Z,12.90
2023-05-18T19:52:13.372Z,12.80
2023-05-18T19:54:40.351Z,12.80
2023-05-18T19:57:07.338Z,12.90
2023-05-18T19:59:34.292Z,12.80
2023-05-18T20:02:03.728Z,12.70
2023-05-18T20:04:31.187Z,12.60
2023-05-18T20:06:58.814Z,12.60
2023-05-18T20:09:26.171Z,12.50
2023-05-18T20:11:54.563Z,12.50
2023-05-18T20:14:24.589Z,12.50
2023-05-18T20:16:52.541Z,12.50
2023-05-18T20:19:19.922Z,12.50
2023-05-18T20:21:50.107Z,12.30
2023-05-18T20:24:17.035Z,12.30
2023-05-18T20:26:44.001Z,12.20
2023-05-18T20:29:11.002Z,12.20
2023-05-18T20:31:37.957Z,12.10
2023-05-18T20:34:06.461Z,12.30
2023-05-18T20:36:33.325Z,12.10
2023-05-18T20:39:00.409Z,12.00
2023-05-18T20:41:28.458Z,12.00
2023-05-18T20:43:56.146Z,11.80
2023-05-18T20:46:24.941Z,11.80
2023-05-18T20:48:55.499Z,11.90
2023-05-18T20:51:23.427Z,11.80
2023-05-18T20:53:50.347Z,11.70
2023-05-18T20:56:18.179Z,11.60
2023-05-18T20:58:50.184Z,11.60
2023-05-18T21:01:18.666Z,11.60
2023-05-18T21:03:46.119Z,11.60
2023-05-18T21:06:14.208Z,11.50
2023-05-18T21:08:41.458Z,11.40
2023-05-18T21:11:08.394Z,11.40
2023-05-18T21:13:37.080Z,11.40
2023-05-18T21:18:35.429Z,11.40
2023-05-18T21:21:03.030Z,11.30
2023-05-18T21:23:30.036Z,11.30
2023-05-18T21:25:57.350Z,11.30
2023-05-18T21:28:27.122Z,11.30
2023-05-18T21:30:56.987Z,11.20
2023-05-18T21:33:24.144Z,11.30
2023-05-18T21:35:51.342Z,11.30
2023-05-18T21:38:18.218Z,11.30
2023-05-18T21:40:45.220Z,11.20
2023-05-18T21:43:12.927Z,11.40
2023-05-18T21:45:40.478Z,11.20
2023-05-18T21:48:08.097Z,11.20
2023-05-18T21:50:35.468Z,11.10
2023-05-18T21:53:03.471Z,11.10
2023-05-18T21:55:31.725Z,11.10
2023-05-18T21:57:58.655Z,11.10
2023-05-18T22:00:25.714Z,11.10
2023-05-18T22:02:52.697Z,11.10
2023-05-18T22:05:19.971Z,11.10
2023-05-18T22:07:46.872Z,11.00
2023-05-18T22:10:14.167Z,11.00
2023-05-18T22:12:43.512Z,11.10
2023-05-18T22:15:10.921Z,11.10
2023-05-18T22:17:39.007Z,11.00
2023-05-18T22:20:08.991Z,11.00
2023-05-18T22:22:35.974Z,11.00
2023-05-18T22:25:03.032Z,10.80
2023-05-18T22:27:30.278Z,10.80
2023-05-18T22:29:57.581Z,10.80
2023-05-18T22:32:24.914Z,10.70
2023-05-18T22:34:52.141Z,10.70
2023-05-18T22:37:19.098Z,10.70
2023-05-18T22:39:46.003Z,10.70
2023-05-18T22:42:12.945Z,10.60
2023-05-18T22:44:39.891Z,10.50
2023-05-18T22:47:06.956Z,10.50
2023-05-18T22:49:35.984Z,10.60
2023-05-18T22:52:04.620Z,10.50
2023-05-18T22:54:31.857Z,10.50
2023-05-18T22:56:59.676Z,10.40
2023-05-18T22:59:28.795Z,10.40
2023-05-18T23:01:55.813Z,10.50
2023-05-18T23:04:22.765Z,10.50
2023-05-18T23:06:50.967Z,10.50
2023-05-18T23:09:18.593Z,10.50
2023-05-18T23:11:46.244Z,10.30
2023-05-18T23:14:13.272Z,10.40
2023-05-18T23:16:43.472Z,10.50
2023-05-18T23:19:12.691Z,10.40
2023-05-18T23:21:42.463Z,10.40
2023-05-18T23:24:12.339Z,10.50
2023-05-18T23:26:43.006Z,10.40
2023-05-18T23:29:10.503Z,10.40
2023-05-18T23:31:37.680Z,10.30
2023-05-18T23:34:04.999Z,10.40
2023-05-18T23:36:35.266Z,10.40
2023-05-18T23:39:02.553Z,10.30
2023-05-18T23:41:33.846Z,10.20
2023-05-18T23:44:01.174Z,10.20
2023-05-18T23:46:28.417Z,10.30
2023-05-18T23:48:57.896Z,10.20
2023-05-18T23:51:25.974Z,10.20
2023-05-18T23:53:53.104Z,10.20
2023-05-18T23:56:20.382Z,10.30
2023-05-18T23:58:47.602Z,10.20
